createdAt,value
2023-01-26T10:09:23.464Z,17.75
2023-01-26T10:11:57.691Z,12.50
2023-01-26T10:14:34.703Z,15.00
2023-01-26T10:17:06.375Z,13.00
2023-01-26T10:19:40.242Z,15.75
2023-01-26T10:22:16.545Z,9.00
2023-01-26T10:24:50.281Z,13.50
2023-01-26T10:27:19.151Z,16.50
2023-01-26T10:29:47.568Z,12.00
2023-01-26T10:32:18.845Z,9.75
2023-01-26T10:34:50.119Z,10.75
2023-01-26T10:37:22.994Z,10.50
2023-01-26T10:40:04.389Z,12.25
2023-01-26T10:42:34.201Z,9.50
2023-01-26T10:45:04.419Z,12.00
2023-01-26T10:47:33.420Z,10.00
2023-01-26T10:50:21.237Z,11.00
2023-01-26T10:53:00.986Z,6.25
2023-01-26T10:55:33.057Z,10.50
2023-01-26T10:58:02.742Z,12.00
2023-01-26T11:00:33.759Z,12.25
2023-01-26T11:03:08.108Z,9.00
2023-01-26T11:05:36.557Z,12.00
2023-01-26T11:08:07.076Z,14.00
2023-01-26T11:10:38.704Z,9.25
2023-01-26T11:13:16.602Z,10.00
2023-01-26T11:15:48.676Z,14.00
2023-01-26T11:18:33.835Z,12.00
2023-01-26T11:21:07.290Z,11.00
2023-01-26T11:23:47.401Z,15.75
2023-01-26T11:26:54.108Z,13.00
2023-01-26T11:29:47.795Z,12.00
2023-01-26T11:32:23.865Z,12.75
2023-01-26T11:35:04.962Z,10.00
2023-01-26T11:37:56.554Z,12.50
2023-01-26T11:40:38.325Z,12.50
2023-01-26T11:43:30.090Z,10.50
2023-01-26T11:46:28.472Z,11.50
2023-01-26T11:49:16.649Z,17.75
2023-01-26T11:51:58.218Z,15.00
2023-01-26T11:54:42.393Z,16.00
2023-01-26T11:57:23.448Z,13.50
2023-01-26T11:59:58.497Z,15.25
2023-01-26T12:02:32.828Z,12.25
2023-01-26T12:05:05.940Z,13.50
2023-01-26T12:07:51.572Z,13.25
2023-01-26T12:10:26.037Z,13.00
2023-01-26T12:13:01.548Z,15.00
2023-01-26T12:15:35.344Z,15.00
2023-01-26T12:18:15.502Z,16.50
2023-01-26T12:20:46.867Z,13.50
2023-01-26T12:23:29.780Z,12.50
2023-01-26T12:26:01.598Z,14.50
2023-01-26T12:28:36.046Z,18.25
2023-01-26T12:31:11.204Z,15.00
2023-01-26T12:33:41.300Z,12.50
2023-01-26T12:36:23.386Z,10.25
2023-01-26T12:39:08.184Z,23.00
2023-01-26T12:41:58.512Z,34.75
2023-01-26T12:44:37.039Z,13.00
2023-01-26T12:47:14.998Z,12.50
2023-01-26T12:49:51.791Z,17.25
2023-01-26T12:52:24.872Z,19.50
2023-01-26T12:54:59.815Z,9.25
2023-01-26T12:57:34.891Z,9.00
2023-01-26T13:00:19.216Z,10.00
2023-01-26T13:02:49.616Z,7.00
2023-01-26T13:05:28.733Z,9.75
2023-01-26T13:07:57.013Z,8.50
2023-01-26T13:10:47.117Z,9.00
2023-01-26T13:13:30.322Z,9.00
2023-01-26T13:16:34.596Z,6.00
2023-01-26T13:19:04.237Z,6.75
2023-01-26T13:21:45.653Z,9.00
2023-01-26T13:24:43.276Z,8.25
2023-01-26T13:27:30.991Z,9.75
2023-01-26T13:29:59.775Z,9.00
2023-01-26T13:32:54.413Z,8.00
2023-01-26T13:35:25.664Z,9.25
2023-01-26T13:38:01.260Z,8.50
2023-01-26T13:40:34.530Z,12.25
2023-01-26T13:43:25.259Z,13.00
2023-01-26T13:46:13.880Z,9.00
2023-01-26T13:48:48.132Z,12.25
2023-01-26T13:51:22.611Z,11.00
2023-01-26T13:53:59.106Z,13.00
2023-01-26T13:56:30.721Z,13.75
2023-01-26T13:59:13.763Z,18.50
2023-01-26T14:01:44.264Z,10.00
2023-01-26T14:04:16.009Z,7.00
2023-01-26T14:06:48.990Z,7.50
2023-01-26T14:09:19.505Z,7.50
2023-01-26T14:11:57.162Z,9.75
2023-01-26T14:14:28.557Z,6.75
2023-01-26T14:16:59.323Z,7.50
2023-01-26T14:19:29.221Z,7.50
2023-01-26T14:22:00.201Z,7.50
2023-01-26T14:24:35.111Z,8.50
2023-01-26T14:27:03.878Z,7.00
2023-01-26T14:29:32.320Z,7.00
2023-01-26T14:32:01.540Z,16.00
2023-01-26T14:34:32.051Z,13.00
2023-01-26T14:37:08.519Z,12.00
2023-01-26T14:39:38.277Z,10.25
2023-01-26T14:42:07.342Z,6.75
2023-01-26T14:44:36.338Z,11.00
2023-01-26T14:47:10.999Z,8.75
2023-01-26T14:49:45.924Z,9.00
2023-01-26T14:52:25.284Z,9.50
2023-01-26T14:54:56.702Z,12.50
2023-01-26T14:57:27.461Z,6.00
2023-01-26T14:59:58.483Z,9.50
2023-01-26T15:02:28.860Z,9.75
2023-01-26T15:05:01.245Z,6.75
2023-01-26T15:07:36.115Z,6.50
2023-01-26T15:10:27.577Z,12.25
2023-01-26T15:13:01.130Z,9.00
2023-01-26T15:15:32.321Z,9.00
2023-01-26T15:18:06.085Z,18.25
2023-01-26T15:20:43.162Z,6.75
2023-01-26T15:23:30.853Z,7.00
2023-01-26T15:26:08.599Z,9.00
2023-01-26T15:28:38.696Z,1.00
2023-01-26T15:31:08.235Z,9.00
2023-01-26T15:33:42.032Z,6.75
2023-01-26T15:36:24.011Z,11.00
2023-01-26T15:38:53.462Z,7.00
2023-01-26T15:41:23.222Z,9.50
2023-01-26T15:43:51.475Z,5.50
2023-01-26T15:46:19.797Z,10.00
2023-01-26T15:48:48.181Z,9.50
2023-01-26T15:51:17.022Z,6.00
2023-01-26T15:53:45.301Z,7.00
2023-01-26T15:56:15.422Z,7.00
2023-01-26T15:58:45.140Z,9.00
2023-01-26T16:01:21.424Z,5.50
2023-01-26T16:03:50.262Z,10.50
2023-01-26T16:06:25.312Z,9.50
2023-01-26T16:08:54.000Z,10.00
2023-01-26T16:11:23.239Z,8.00
2023-01-26T16:14:02.930Z,6.25
2023-01-26T16:16:32.759Z,8.00
2023-01-26T16:19:01.531Z,8.50
2023-01-26T16:21:33.298Z,10.00
2023-01-26T16:24:02.517Z,7.00
2023-01-26T16:26:31.850Z,8.50
2023-01-26T16:29:01.830Z,8.00
2023-01-26T16:31:32.649Z,4.00
2023-01-26T16:34:01.380Z,6.00
2023-01-26T16:36:30.232Z,9.00
2023-01-26T16:38:58.532Z,6.50
2023-01-26T16:41:28.252Z,9.00
2023-01-26T16:43:58.573Z,6.00
2023-01-26T16:46:30.400Z,7.00
2023-01-26T16:48:58.921Z,7.00
2023-01-26T16:51:30.538Z,9.25
2023-01-26T16:53:59.627Z,10.00
2023-01-26T16:56:28.751Z,11.00
2023-01-26T16:58:57.199Z,8.50
2023-01-26T17:01:28.435Z,6.00
2023-01-26T17:03:58.301Z,4.00
2023-01-26T17:06:27.012Z,8.50
2023-01-26T17:08:55.684Z,7.50
2023-01-26T17:11:27.770Z,8.50
2023-01-26T17:13:57.121Z,6.50
2023-01-26T17:16:29.650Z,6.50
2023-01-26T17:18:59.487Z,9.00
2023-01-26T17:21:28.065Z,6.50
2023-01-26T17:23:58.933Z,9.25
2023-01-26T17:26:27.501Z,12.00
2023-01-26T17:28:56.994Z,10.00
2023-01-26T17:31:26.539Z,11.00
2023-01-26T17:33:56.130Z,14.00
2023-01-26T17:36:25.824Z,8.00
2023-01-26T17:38:54.412Z,19.00
2023-01-26T17:41:22.755Z,17.50
2023-01-26T17:43:51.413Z,19.00
2023-01-26T17:46:21.867Z,18.50
2023-01-26T17:48:50.952Z,17.00
2023-01-26T17:51:21.028Z,7.50
2023-01-26T17:53:51.743Z,20.25
2023-01-26T17:56:21.838Z,20.00
2023-01-26T17:58:51.659Z,17.00
2023-01-26T18:01:21.651Z,19.25
2023-01-26T18:03:50.472Z,18.50
2023-01-26T18:06:19.143Z,16.50
2023-01-26T18:08:48.524Z,14.00
2023-01-26T18:11:18.376Z,15.25
2023-01-26T18:13:46.801Z,20.00
2023-01-26T18:16:18.092Z,19.50
2023-01-26T18:18:47.076Z,12.75
2023-01-26T18:21:17.769Z,12.75
2023-01-26T18:23:47.514Z,10.25
2023-01-26T18:26:18.429Z,12.00
2023-01-26T18:28:46.919Z,9.75
2023-01-26T18:31:17.946Z,6.75
2023-01-26T18:33:46.984Z,10.50
2023-01-26T18:36:17.443Z,16.75
2023-01-26T18:38:50.396Z,9.75
2023-01-26T18:41:26.165Z,13.25
2023-01-26T18:43:57.917Z,10.50
2023-01-26T18:46:28.023Z,12.25
2023-01-26T18:49:00.636Z,10.00
2023-01-26T18:51:30.653Z,14.00
2023-01-26T18:53:59.423Z,14.00
2023-01-26T18:56:29.251Z,12.50
2023-01-26T18:58:57.593Z,13.50
2023-01-26T19:01:26.275Z,12.50
2023-01-26T19:03:58.784Z,12.00
2023-01-26T19:06:30.959Z,7.00
2023-01-26T19:09:01.360Z,13.50
2023-01-26T19:11:33.771Z,13.00
2023-01-26T19:14:03.402Z,14.50
2023-01-26T19:16:32.057Z,14.75
2023-01-26T19:19:00.466Z,18.75
2023-01-26T19:21:29.598Z,14.00
2023-01-26T19:24:02.527Z,16.50
2023-01-26T19:26:32.903Z,20.50
2023-01-26T19:29:01.668Z,16.50
2023-01-26T19:31:30.853Z,21.00
2023-01-26T19:34:00.782Z,29.25
2023-01-26T19:36:33.692Z,31.00
2023-01-26T19:39:02.455Z,25.25
2023-01-26T19:41:32.575Z,28.50
2023-01-26T19:44:01.005Z,36.00
2023-01-26T19:46:29.478Z,43.25
2023-01-26T19:48:57.771Z,36.50
2023-01-26T19:51:27.525Z,38.00
2023-01-26T19:53:57.543Z,34.00
2023-01-26T19:56:28.140Z,36.25
2023-01-26T19:58:59.803Z,30.00
2023-01-26T20:01:30.157Z,35.00
2023-01-26T20:04:00.196Z,31.50
2023-01-26T20:06:30.793Z,39.25
2023-01-26T20:09:00.344Z,39.75
2023-01-26T20:11:29.837Z,40.25
2023-01-26T20:14:01.691Z,34.00
2023-01-26T20:16:30.742Z,33.50
2023-01-26T20:19:00.136Z,0.00
2023-01-26T20:21:29.717Z,33.00
2023-01-26T20:23:58.150Z,30.00
2023-01-26T20:26:28.595Z,27.00
2023-01-26T20:28:58.349Z,21.50
2023-01-26T20:31:28.872Z,33.00
2023-01-26T20:33:58.437Z,30.50
2023-01-26T20:36:29.325Z,18.50
2023-01-26T20:38:57.693Z,29.00
2023-01-26T20:41:29.481Z,30.75
2023-01-26T20:44:01.601Z,32.75
2023-01-26T20:46:34.592Z,22.50
2023-01-26T20:49:03.764Z,29.50
2023-01-26T20:51:35.939Z,25.75
2023-01-26T20:54:07.405Z,28.50
2023-01-26T20:56:36.672Z,27.50
2023-01-26T20:59:05.922Z,27.25
2023-01-26T21:01:36.629Z,27.25
2023-01-26T21:04:06.639Z,27.75
2023-01-26T21:06:35.870Z,28.75
2023-01-26T21:09:06.187Z,28.00
2023-01-26T21:11:35.379Z,28.00
2023-01-26T21:14:04.388Z,31.75
2023-01-26T21:16:36.144Z,29.00
2023-01-26T21:19:04.558Z,32.50
2023-01-26T21:21:32.946Z,30.50
2023-01-26T21:24:01.375Z,29.50
2023-01-26T21:26:29.942Z,29.25
2023-01-26T21:29:00.116Z,33.50
2023-01-26T21:31:30.960Z,27.50
2023-01-26T21:34:01.554Z,28.25
2023-01-26T21:36:32.301Z,30.50
2023-01-26T21:39:01.875Z,28.25
2023-01-26T21:41:49.718Z,30.00
2023-01-26T21:44:20.387Z,33.00
2023-01-26T21:46:50.745Z,30.25
2023-01-26T21:49:21.379Z,30.00
2023-01-26T21:52:07.421Z,27.75
2023-01-26T21:54:36.092Z,28.25
2023-01-26T21:57:26.030Z,25.25
2023-01-26T21:59:53.530Z,30.00
2023-01-26T22:02:22.322Z,30.50
2023-01-26T22:04:52.690Z,30.00
2023-01-26T22:07:23.087Z,33.00
2023-01-26T22:09:51.390Z,10.50
2023-01-26T22:12:19.671Z,33.25
2023-01-26T22:14:47.938Z,30.25
2023-01-26T22:17:16.230Z,33.00
2023-01-26T22:19:44.504Z,30.25
2023-01-26T22:22:14.387Z,25.50
2023-01-26T22:24:42.630Z,28.75
2023-01-26T22:27:10.979Z,33.00
2023-01-26T22:29:39.254Z,33.50
2023-01-26T22:32:07.679Z,33.75
2023-01-26T22:34:36.007Z,33.75
2023-01-26T22:37:04.368Z,36.00
2023-01-26T22:39:34.264Z,37.00
2023-01-26T22:42:02.543Z,33.00
2023-01-26T22:44:30.854Z,33.75
2023-01-26T22:46:59.253Z,33.50
2023-01-26T22:49:27.548Z,32.00
2023-01-26T22:51:56.276Z,30.25
2023-01-26T22:54:24.872Z,32.50
2023-01-26T22:56:54.591Z,30.25
2023-01-26T22:59:22.886Z,27.25
2023-01-26T23:01:51.138Z,28.00
2023-01-26T23:04:19.541Z,25.25
2023-01-26T23:06:47.866Z,29.50
2023-01-26T23:09:16.245Z,29.00
2023-01-26T23:11:44.876Z,28.00
2023-01-26T23:14:14.551Z,29.50
2023-01-26T23:16:42.998Z,17.50
2023-01-26T23:19:11.375Z,24.00
2023-01-26T23:21:39.641Z,36.00
2023-01-26T23:24:09.137Z,31.00
2023-01-26T23:26:37.507Z,28.50
2023-01-26T23:29:05.864Z,29.00
2023-01-26T23:31:35.504Z,33.50
2023-01-26T23:34:03.921Z,33.00
2023-01-26T23:36:32.277Z,30.25
2023-01-26T23:39:01.165Z,33.75
2023-01-26T23:41:29.461Z,32.00
2023-01-26T23:43:57.744Z,33.00
2023-01-26T23:46:26.101Z,29.00
2023-01-26T23:48:55.795Z,27.00
2023-01-26T23:51:24.129Z,30.25
2023-01-26T23:53:52.452Z,30.25
2023-01-26T23:56:20.708Z,28.50
2023-01-26T23:58:49.014Z,30.00
